Time;durP1;ratioP1;P1;durP2;ratioP2;P2;SDS_P1;SDS_P2;PMS_P1;PMS_P2;Temp;Humidity;BMP_temperature;BMP_pressure;BME280_temperature;BME280_humidity;BME280_pressure;Samples;Min_cycle;Max_cycle;Signal;HPM_P1;HPM_P2
2023/01/09 00:04:58;;;;;;;3.05;2.35;;;;;;;8.02;68.18;98351.94;10494686;28;20115;-77
2023/01/09 00:10:01;;;;;;;3.13;2.30;;;;;;;8.11;67.97;98345.66;10490251;28;20115;-77
2023/01/09 00:15:05;;;;;;;3.17;2.15;;;;;;;8.18;67.90;98349.38;10494641;28;20102;-77
2023/01/09 00:20:11;;;;;;;3.20;2.55;;;;;;;8.09;68.38;98340.47;10493698;28;20552;-77
2023/01/09 00:25:13;;;;;;;3.30;2.42;;;;;;;8.02;69.10;98341.25;10490323;28;20110;-77
2023/01/09 00:30:17;;;;;;;3.80;3.10;;;;;;;8.09;69.68;98339.59;10493488;28;20090;-77
2023/01/09 00:35:24;;;;;;;4.53;3.40;;;;;;;8.07;70.79;98323.75;10493618;28;20040;-76
2023/01/09 00:40:26;;;;;;;4.88;2.78;;;;;;;7.95;72.10;98333.00;10489770;28;20052;-77
2023/01/09 00:45:30;;;;;;;3.28;2.80;;;;;;;7.76;73.41;98322.53;10491581;28;20418;-77
2023/01/09 00:50:35;;;;;;;3.20;2.90;;;;;;;7.79;74.37;98328.41;10492976;28;20116;-77
2023/01/09 00:55:40;;;;;;;3.65;3.25;;;;;;;7.63;75.12;98326.47;10491981;28;20063;-77
2023/01/09 01:00:43;;;;;;;6.15;3.60;;;;;;;7.70;75.44;98332.00;10492674;28;20036;-77
2023/01/09 01:11:10;;;;;;;3.60;2.60;;;;;;;7.65;75.11;98327.16;10492557;28;20037;-77
2023/01/09 01:16:13;;;;;;;3.08;2.70;;;;;;;7.63;75.44;98339.00;10480121;28;20506;-77
2023/01/09 01:21:17;;;;;;;2.13;1.92;;;;;;;7.59;75.15;98343.78;10490803;28;20075;-77
2023/01/09 01:26:20;;;;;;;3.22;2.42;;;;;;;7.70;75.07;98332.00;10492536;28;20079;-77
2023/01/09 01:31:23;;;;;;;2.13;2.03;;;;;;;7.36;75.88;98342.59;10491805;28;20082;-76
2023/01/09 01:36:27;;;;;;;3.28;1.85;;;;;;;7.39;76.75;98340.44;10492598;28;20041;-77
2023/01/09 01:41:30;;;;;;;1.70;1.60;;;;;;;7.23;78.20;98338.47;10491776;28;20049;-77
2023/01/09 01:46:34;;;;;;;3.35;1.60;;;;;;;6.95;79.68;98363.56;10484358;28;20083;-76
2023/01/09 01:51:41;;;;;;;2.35;1.38;;;;;;;6.67;81.62;98349.38;10491930;28;20090;-76
2023/01/09 01:56:46;;;;;;;2.40;1.00;;;;;;;6.48;83.33;98361.81;10499137;28;20068;-77
2023/01/09 02:01:53;;;;;;;2.25;0.75;;;;;;;6.10;84.27;98362.81;10500574;28;20041;-78
2023/01/09 02:07:00;;;;;;;0.90;0.70;;;;;;;6.31;84.84;98365.28;10500130;28;20060;-79
2023/01/09 02:12:16;;;;;;;0.50;0.40;;;;;;;5.95;86.34;98355.28;10500633;28;20064;-80
2023/01/09 02:17:31;;;;;;;0.65;0.40;;;;;;;5.63;87.55;98357.44;10504225;28;20047;-79
2023/01/09 02:22:42;;;;;;;0.50;0.40;;;;;;;5.74;86.61;98349.28;10506478;28;20067;-81
2023/01/09 02:28:19;;;;;;;0.43;0.20;;;;;;;5.53;87.76;98346.78;10506760;28;20076;-79
2023/01/09 02:33:36;;;;;;;0.40;0.38;;;;;;;5.66;88.89;98339.34;10507708;28;20040;-80
2023/01/09 02:38:48;;;;;;;0.35;0.35;;;;;;;5.63;87.33;98339.63;10500430;28;20045;-79
2023/01/09 02:44:10;;;;;;;1.23;0.73;;;;;;;5.76;88.05;98346.47;10508814;28;20115;-79
2023/01/09 02:49:16;;;;;;;0.60;0.52;;;;;;;5.88;87.54;98326.69;10507545;28;20472;-79
2023/01/09 02:54:37;;;;;;;0.50;0.50;;;;;;;5.87;87.39;98325.84;10511851;28;20053;-79
2023/01/09 02:59:56;;;;;;;0.65;0.50;;;;;;;5.84;86.87;98325.28;10509231;28;20047;-81
2023/01/09 03:05:09;;;;;;;0.60;0.30;;;;;;;5.47;88.55;98324.22;10512790;28;20041;-81
2023/01/09 03:10:17;;;;;;;0.50;0.30;;;;;;;5.50;88.14;98315.94;10511786;28;20048;-80
2023/01/09 03:15:24;;;;;;;0.88;0.68;;;;;;;5.48;88.22;98314.41;10509667;28;20451;-79
2023/01/09 03:20:30;;;;;;;0.90;0.38;;;;;;;5.57;88.21;98312.72;10508742;28;20048;-79
2023/01/09 03:25:33;;;;;;;0.45;0.30;;;;;;;5.73;87.32;98311.16;10508106;28;20036;-81
2023/01/09 03:30:36;;;;;;;0.50;0.30;;;;;;;5.49;88.42;98318.78;10506816;28;20045;-82
2023/01/09 03:35:40;;;;;;;0.30;0.30;;;;;;;5.73;87.05;98308.50;10504678;28;20041;-81
2023/01/09 03:40:43;;;;;;;0.30;0.28;;;;;;;5.57;87.66;98305.59;10505354;28;20494;-81
2023/01/09 03:45:46;;;;;;;0.45;0.32;;;;;;;5.66;87.76;98312.69;10504336;28;20547;-81
2023/01/09 03:50:51;;;;;;;0.43;0.35;;;;;;;5.61;87.56;98330.09;10501901;28;20051;-81
2023/01/09 03:55:56;;;;;;;0.50;0.40;;;;;;;5.50;87.74;98323.09;10501840;28;20589;-81
2023/01/09 04:01:00;;;;;;;2.45;0.40;;;;;;;5.47;88.02;98328.72;10500985;28;20056;-81
2023/01/09 04:06:05;;;;;;;0.63;0.60;;;;;;;5.47;87.11;98329.56;10500942;28;20036;-80
2023/01/09 04:11:08;;;;;;;1.67;1.48;;;;;;;5.35;87.28;98344.00;10500397;28;20048;-80
2023/01/09 04:16:11;;;;;;;2.22;1.80;;;;;;;5.26;87.81;98344.84;10517650;28;20037;-79
2023/01/09 04:21:15;;;;;;;1.92;1.58;;;;;;;5.28;87.60;98354.34;10518967;28;20454;-80
2023/01/09 04:26:18;;;;;;;3.42;2.88;;;;;;;5.30;86.95;98362.22;10506084;28;20045;-80
2023/01/09 04:31:21;;;;;;;3.45;3.15;;;;;;;5.31;87.33;98381.69;10509728;28;20036;-81
2023/01/09 04:36:25;;;;;;;4.03;3.63;;;;;;;5.54;87.21;98387.56;10502847;28;20045;-80
2023/01/09 04:46:49;;;;;;;11.38;4.63;;;;;;;5.61;86.33;98402.84;10502243;28;20469;-80
2023/01/09 04:51:53;;;;;;;9.45;5.22;;;;;;;5.33;86.90;98393.06;10501627;28;20041;-79
2023/01/09 04:56:56;;;;;;;8.90;6.38;;;;;;;5.28;86.10;98409.44;10501784;28;20068;-79
2023/01/09 05:02:00;;;;;;;8.10;4.78;;;;;;;5.47;85.21;98417.41;10500703;28;20436;-81
2023/01/09 05:07:04;;;;;;;9.88;5.53;;;;;;;5.61;83.88;98423.31;10503333;28;20599;-79
2023/01/09 05:12:07;;;;;;;16.95;5.78;;;;;;;5.39;84.12;98425.25;10506740;28;20049;-78
2023/01/09 05:17:10;;;;;;;11.50;7.53;;;;;;;5.26;85.00;98433.50;10509840;28;20056;-80
2023/01/09 05:22:14;;;;;;;9.35;5.97;;;;;;;5.18;84.11;98443.16;10504605;28;20044;-80
2023/01/09 05:27:17;;;;;;;8.52;6.68;;;;;;;5.24;82.59;98439.97;10504524;28;20071;-80
2023/01/09 05:32:20;;;;;;;11.57;7.45;;;;;;;5.61;81.86;98461.44;10513230;28;20126;-80
2023/01/09 05:37:24;;;;;;;11.80;8.35;;;;;;;5.60;81.92;98466.91;10495857;28;20037;-80
2023/01/09 05:42:26;;;;;;;13.93;8.43;;;;;;;5.47;81.88;98477.84;10514065;28;20071;-80
2023/01/09 05:47:29;;;;;;;17.92;9.00;;;;;;;5.32;83.00;98474.75;10517157;28;20055;-80
2023/01/09 05:52:33;;;;;;;14.90;7.70;;;;;;;4.90;83.21;98477.50;10515227;28;20067;-79
2023/01/09 05:57:36;;;;;;;17.40;9.30;;;;;;;5.28;81.99;98495.44;10514110;28;20049;-80
2023/01/09 06:02:39;;;;;;;24.13;10.38;;;;;;;5.44;82.31;98494.09;10514171;28;20114;-80
2023/01/09 06:07:43;;;;;;;20.88;11.63;;;;;;;5.33;82.54;98494.22;10515807;28;20067;-80
2023/01/09 06:12:50;;;;;;;11.27;7.40;;;;;;;5.20;82.32;98507.75;10515435;28;20489;-80
2023/01/09 06:17:53;;;;;;;21.00;11.38;;;;;;;5.40;82.13;98504.19;10516924;28;20045;-80
2023/01/09 06:22:57;;;;;;;22.52;12.30;;;;;;;5.71;80.65;98498.75;10517182;28;20036;-80
2023/01/09 06:28:00;;;;;;;23.15;12.75;;;;;;;5.53;80.50;98509.22;10517754;28;20440;-79
2023/01/09 06:33:02;;;;;;;15.60;10.75;;;;;;;5.57;81.02;98501.78;10519089;28;20044;-79
2023/01/09 06:38:06;;;;;;;15.93;9.73;;;;;;;5.31;82.63;98517.47;10504867;28;20095;-79
2023/01/09 06:43:09;;;;;;;20.23;9.68;;;;;;;5.58;81.60;98520.31;10503818;28;20047;-79
2023/01/09 06:48:12;;;;;;;21.33;9.48;;;;;;;5.48;81.31;98536.25;10518773;28;20044;-79
2023/01/09 06:53:16;;;;;;;13.00;8.63;;;;;;;5.57;81.54;98542.63;10533194;28;20037;-80
2023/01/09 06:58:19;;;;;;;15.45;7.07;;;;;;;5.34;81.99;98543.81;10534241;28;20044;-79
2023/01/09 07:03:22;;;;;;;14.13;7.32;;;;;;;5.54;81.60;98545.56;10528076;28;20051;-78
2023/01/09 07:08:26;;;;;;;12.20;7.55;;;;;;;5.43;81.80;98554.50;10523711;28;20053;-78
2023/01/09 07:13:29;;;;;;;13.57;7.78;;;;;;;5.57;81.54;98571.03;10524552;28;20044;-79
2023/01/09 07:18:32;;;;;;;14.45;7.22;;;;;;;5.45;81.48;98576.47;10527140;28;20037;-78
2023/01/09 07:23:36;;;;;;;22.02;8.02;;;;;;;5.59;80.06;98582.41;10532334;28;20067;-79
2023/01/09 07:28:39;;;;;;;11.68;5.85;;;;;;;5.55;79.28;98587.19;10531771;28;20036;-79
2023/01/09 07:33:41;;;;;;;13.60;5.50;;;;;;;5.70;78.72;98587.63;10542615;28;20052;-79
2023/01/09 07:38:46;;;;;;;8.18;4.57;;;;;;;5.58;78.99;98586.91;10541474;28;20052;-79
2023/01/09 07:43:48;;;;;;;14.35;5.15;;;;;;;5.56;78.49;98596.84;10530370;28;20044;-78
2023/01/09 07:48:51;;;;;;;7.53;3.80;;;;;;;5.35;77.82;98583.63;10540673;28;20029;-78
2023/01/09 07:53:55;;;;;;;5.75;3.15;;;;;;;5.55;77.21;98589.84;10547212;28;20042;-77
2023/01/09 07:58:58;;;;;;;4.72;3.25;;;;;;;5.53;78.19;98596.28;10543724;28;20052;-78
2023/01/09 08:04:01;;;;;;;6.35;3.22;;;;;;;5.33;79.60;98593.56;10547181;28;20078;-77
2023/01/09 08:09:05;;;;;;;7.20;3.78;;;;;;;5.41;79.55;98590.22;10546641;28;20036;-76
2023/01/09 08:14:08;;;;;;;10.00;4.07;;;;;;;5.50;78.54;98595.56;10546282;28;20058;-78
2023/01/09 08:19:10;;;;;;;13.43;6.25;;;;;;;5.67;78.26;98614.53;10547722;28;20040;-76
2023/01/09 08:24:15;;;;;;;11.23;5.45;;;;;;;5.77;78.28;98609.25;10546353;28;20489;-77
2023/01/09 08:29:18;;;;;;;9.85;3.95;;;;;;;5.71;77.89;98615.97;10547675;28;20036;-76
2023/01/09 08:34:20;;;;;;;6.93;4.13;;;;;;;5.72;77.50;98609.66;10544127;28;20066;-79
2023/01/09 08:39:25;;;;;;;11.27;3.88;;;;;;;5.54;78.63;98613.94;10512883;28;20055;-79
2023/01/09 08:49:48;;;;;;;10.90;3.53;;;;;;;5.35;80.56;98631.53;10507504;28;20044;-78
2023/01/09 08:54:52;;;;;;;7.65;2.88;;;;;;;5.37;80.68;98623.41;10500969;28;20497;-79
2023/01/09 08:59:55;;;;;;;8.57;2.92;;;;;;;5.48;80.48;98625.97;10504082;28;20501;-78
2023/01/09 09:04:58;;;;;;;6.90;2.80;;;;;;;5.41;80.08;98638.16;10513171;28;20138;-78
2023/01/09 09:10:02;;;;;;;4.72;2.00;;;;;;;5.30;79.52;98617.78;10513618;28;20044;-77
2023/01/09 09:15:22;;;;;;;7.07;2.35;;;;;;;5.32;79.63;98634.47;10514531;28;20460;-79
2023/01/09 09:20:27;;;;;;;11.00;2.95;;;;;;;5.71;78.68;98638.13;10513847;28;20052;-78
2023/01/09 09:25:32;;;;;;;10.98;2.35;;;;;;;5.80;78.27;98625.78;10523792;28;20098;-78
2023/01/09 09:30:35;;;;;;;5.65;1.70;;;;;;;5.85;78.35;98620.91;10523386;28;20040;-79
2023/01/09 09:35:38;;;;;;;4.90;2.00;;;;;;;6.15;77.01;98627.13;10498593;28;20036;-82
2023/01/09 09:41:03;;;;;;;7.60;1.73;;;;;;;6.65;76.01;98631.47;10472061;28;20044;-80
2023/01/09 09:46:15;;;;;;;3.30;1.33;;;;;;;7.01;73.44;98619.22;10470577;28;20058;-80
2023/01/09 09:51:48;;;;;;;5.28;1.40;;;;;;;7.10;73.40;98622.84;10468443;28;20040;-78
2023/01/09 09:56:56;;;;;;;4.07;1.35;;;;;;;6.63;73.83;98640.44;10470448;28;20080;-77
2023/01/09 10:02:02;;;;;;;2.42;1.23;;;;;;;6.70;73.47;98640.72;10474231;28;20591;-79
2023/01/09 10:07:08;;;;;;;3.58;1.02;;;;;;;7.53;71.77;98621.41;10478361;28;20059;-77
2023/01/09 10:12:26;;;;;;;6.07;1.00;;;;;;;7.97;69.02;98626.94;10469084;28;20048;-78
2023/01/09 10:17:49;;;;;;;4.38;0.77;;;;;;;8.12;67.85;98630.81;10488475;28;20057;-78
2023/01/09 10:22:57;;;;;;;;;;;;;;;7.97;70.21;98645.66;10495937;28;20071;-77
2023/01/09 10:28:18;;;;;;;2.78;1.08;;;;;;;8.43;66.08;98623.22;10468198;28;19928;-78
2023/01/09 10:33:36;;;;;;;7.07;0.88;;;;;;;8.20;67.96;98608.63;10472735;28;20045;-77
2023/01/09 10:38:43;;;;;;;2.03;0.60;;;;;;;7.30;69.28;98619.13;10465603;28;20135;-77
2023/01/09 10:43:53;;;;;;;2.45;0.80;;;;;;;7.41;70.13;98618.09;10463692;28;20043;-77
2023/01/09 10:49:00;;;;;;;1.67;0.68;;;;;;;7.34;69.79;98614.31;10464219;28;21602;-77
2023/01/09 10:54:11;;;;;;;2.83;0.70;;;;;;;8.03;67.25;98612.97;10461013;28;20063;-76
2023/01/09 10:59:15;;;;;;;8.18;0.95;;;;;;;8.11;67.45;98600.50;10457022;28;20111;-77
2023/01/09 11:04:23;;;;;;;2.10;0.57;;;;;;;6.94;69.92;98613.63;10463562;28;20147;-77
2023/01/09 11:09:26;;;;;;;4.78;0.90;;;;;;;7.04;71.33;98616.25;10465122;28;20053;-77
2023/01/09 11:14:30;;;;;;;2.42;0.80;;;;;;;6.87;71.45;98614.31;10462968;28;20062;-76
2023/01/09 11:19:33;;;;;;;2.03;1.27;;;;;;;6.80;71.32;98614.88;10491219;28;20051;-77
2023/01/09 11:24:36;;;;;;;1.20;0.65;;;;;;;6.85;70.00;98625.09;10505542;28;20049;-78
2023/01/09 11:29:41;;;;;;;2.08;0.98;;;;;;;6.87;72.53;98622.31;10507599;28;20036;-78
2023/01/09 11:34:45;;;;;;;3.10;0.88;;;;;;;6.89;72.55;98625.72;10511359;28;20059;-77
2023/01/09 11:39:48;;;;;;;2.17;0.88;;;;;;;6.87;73.19;98624.97;10510468;28;20041;-77
2023/01/09 11:45:00;;;;;;;1.17;0.60;;;;;;;6.61;73.13;98628.25;10517002;28;20036;-77
2023/01/09 11:50:17;;;;;;;3.05;0.70;;;;;;;6.39;72.77;98626.72;10511394;28;20100;-77
2023/01/09 11:55:20;;;;;;;2.33;1.70;;;;;;;6.77;72.64;98625.81;10495923;28;20318;-79
2023/01/09 12:00:30;;;;;;;1.55;0.77;;;;;;;6.47;74.35;98636.66;10504205;28;20056;-78
2023/01/09 12:05:43;;;;;;;1.98;0.90;;;;;;;6.61;74.76;98637.09;10490035;28;20052;-79
2023/01/09 12:11:09;;;;;;;2.65;1.17;;;;;;;6.59;74.34;98632.88;10503473;28;20052;-79
2023/01/09 12:16:24;;;;;;;2.60;1.05;;;;;;;6.84;73.86;98640.28;10492989;28;20059;-78
2023/01/09 12:21:34;;;;;;;4.68;1.15;;;;;;;6.72;72.89;98629.91;10502078;28;20044;-78
2023/01/09 12:26:49;;;;;;;2.83;0.80;;;;;;;6.90;72.71;98643.41;10502644;28;20032;-78
2023/01/09 12:32:25;;;;;;;1.73;1.40;;;;;;;6.70;73.40;98639.91;10502582;28;20058;-78
2023/01/09 12:37:56;;;;;;;6.57;1.23;;;;;;;5.80;79.17;98659.59;10477090;28;20454;-78
2023/01/09 12:43:08;;;;;;;4.13;1.77;;;;;;;5.88;83.07;98655.25;10463892;28;20583;-78
2023/01/09 12:48:26;;;;;;;2.45;2.25;;;;;;;5.89;84.87;98662.25;10493982;28;20235;-79
2023/01/09 12:53:34;;;;;;;5.78;2.75;;;;;;;5.87;87.76;98668.72;10488849;28;20076;-78
2023/01/09 12:58:43;;;;;;;4.78;1.90;;;;;;;5.18;87.86;98664.91;10469597;28;20108;-80
2023/01/09 13:03:54;;;;;;;3.55;2.63;;;;;;;5.72;87.75;98647.78;10472857;28;20099;-79
2023/01/09 13:09:13;;;;;;;5.32;2.38;;;;;;;5.80;86.86;98672.91;10479578;28;20083;-80
2023/01/09 13:14:21;;;;;;;7.68;2.10;;;;;;;6.28;82.63;98669.50;10477301;28;20106;-80
2023/01/09 13:19:31;;;;;;;3.30;2.13;;;;;;;6.05;80.95;98671.56;10466855;28;21160;-79
2023/01/09 13:24:39;;;;;;;3.28;1.65;;;;;;;5.99;79.64;98664.13;10484277;28;20048;-79
2023/01/09 13:29:45;;;;;;;2.05;1.83;;;;;;;6.38;78.22;98681.03;10476605;28;20044;-80
2023/01/09 13:34:53;;;;;;;3.35;1.92;;;;;;;6.56;77.20;98683.84;10459059;28;20058;-80
2023/01/09 13:39:58;;;;;;;4.47;2.17;;;;;;;6.37;77.72;98674.84;10460126;28;20044;-80
2023/01/09 13:45:11;;;;;;;8.88;2.63;;;;;;;6.37;77.09;98684.69;10431311;28;20079;-80
2023/01/09 13:50:27;;;;;;;2.08;1.83;;;;;;;5.95;77.31;98675.06;10464597;28;20489;-79
2023/01/09 13:55:35;;;;;;;6.38;2.10;;;;;;;5.98;76.96;98679.28;10466387;28;20044;-81
2023/01/09 14:00:54;;;;;;;2.65;2.03;;;;;;;6.06;75.91;98679.44;10464045;28;20517;-80
2023/01/09 14:06:16;;;;;;;8.98;1.73;;;;;;;6.17;75.42;98681.13;10467945;28;20056;-81
2023/01/09 14:11:22;;;;;;;5.32;1.50;;;;;;;5.89;74.85;98696.06;10470141;28;20051;-80
2023/01/09 14:16:26;;;;;;;7.00;2.38;;;;;;;6.34;74.10;98709.78;10464392;28;20104;-79
2023/01/09 14:21:45;;;;;;;2.85;1.40;;;;;;;6.32;74.99;98722.41;10447773;28;20044;-80
2023/01/09 14:26:51;;;;;;;5.45;2.08;;;;;;;6.12;75.17;98748.19;10455638;28;20178;-80
2023/01/09 14:32:32;;;;;;;1.10;0.85;;;;;;;6.26;75.41;98754.13;10464041;28;20052;-79
2023/01/09 14:37:37;;;;;;;3.88;1.58;;;;;;;6.00;75.95;98770.59;10456663;28;20487;-79
2023/01/09 14:42:46;;;;;;;2.17;1.58;;;;;;;6.07;76.54;98779.75;10446117;28;20042;-81
2023/01/09 14:47:55;;;;;;;6.10;2.70;;;;;;;6.21;76.45;98781.19;10460715;28;20052;-78
2023/01/09 14:53:04;;;;;;;3.85;2.58;;;;;;;6.41;76.24;98806.09;10456348;28;20182;-78
2023/01/09 14:58:11;;;;;;;5.75;2.72;;;;;;;5.77;77.50;98825.88;10445076;28;21319;-79
2023/01/09 15:03:14;;;;;;;5.78;2.63;;;;;;;5.97;76.21;98823.31;10452686;28;20508;-78
2023/01/09 15:08:22;;;;;;;7.78;3.38;;;;;;;6.12;76.87;98844.16;10458664;28;20044;-78
2023/01/09 15:13:35;;;;;;;3.10;2.80;;;;;;;5.72;76.95;98871.56;10461276;28;20052;-79
2023/01/09 15:18:42;;;;;;;6.38;3.20;;;;;;;5.84;77.45;98901.69;10459627;28;20055;-78
2023/01/09 15:23:46;;;;;;;5.38;3.72;;;;;;;5.87;77.14;98888.09;10462470;28;20040;-78
2023/01/09 15:28:52;;;;;;;5.47;3.45;;;;;;;6.04;77.20;98899.13;10459506;28;20500;-78
2023/01/09 15:33:55;;;;;;;6.20;3.97;;;;;;;5.74;78.21;98900.75;10465042;28;21613;-78
2023/01/09 15:39:00;;;;;;;6.53;4.25;;;;;;;5.77;78.02;98895.16;10462840;28;20131;-78
2023/01/09 15:44:04;;;;;;;10.52;3.88;;;;;;;5.86;78.28;98896.19;10458752;28;20071;-78
2023/01/09 15:49:11;;;;;;;9.20;3.47;;;;;;;5.68;78.10;98909.28;10464047;28;20045;-78
2023/01/09 15:54:17;;;;;;;8.45;4.03;;;;;;;5.62;78.54;98899.97;10490044;28;20064;-78
2023/01/09 15:59:26;;;;;;;10.35;4.70;;;;;;;5.54;78.91;98914.88;10495473;28;20045;-78
2023/01/09 16:04:29;;;;;;;4.43;3.42;;;;;;;5.26;79.07;98928.66;10459794;28;20088;-78
2023/01/09 16:09:36;;;;;;;4.75;3.50;;;;;;;5.45;78.96;98953.78;10447753;28;20049;-78
2023/01/09 16:14:44;;;;;;;5.88;2.55;;;;;;;5.49;78.20;98972.06;10458734;28;20063;-78
2023/01/09 16:19:48;;;;;;;9.82;4.03;;;;;;;5.62;78.94;98966.56;10457853;28;20036;-77
2023/01/09 16:24:54;;;;;;;6.30;3.80;;;;;;;5.54;78.92;98977.03;10460487;28;20142;-79
2023/01/09 16:29:58;;;;;;;5.53;4.57;;;;;;;5.37;80.01;98989.03;10462019;28;20131;-79
2023/01/09 16:35:03;;;;;;;9.77;7.10;;;;;;;5.75;79.44;98992.19;10461487;28;20114;-79
2023/01/09 16:40:30;;;;;;;12.38;7.05;;;;;;;5.82;78.47;99004.03;10463995;28;21260;-79
2023/01/09 16:45:36;;;;;;;10.68;6.70;;;;;;;5.62;79.39;99011.88;10461622;28;20041;-79
2023/01/09 16:50:39;;;;;;;8.35;7.40;;;;;;;5.65;79.27;99022.25;10466281;28;20044;-79
2023/01/09 16:55:44;;;;;;;7.65;5.55;;;;;;;5.56;79.33;99035.47;10464709;28;21296;-79
2023/01/09 17:00:47;;;;;;;13.25;8.00;;;;;;;5.51;79.50;99035.84;10462873;28;20044;-79
2023/01/09 17:05:52;;;;;;;13.05;9.07;;;;;;;5.75;79.70;99066.78;10458918;28;20057;-78
2023/01/09 17:10:57;;;;;;;14.55;9.05;;;;;;;5.35;82.53;99057.56;10460967;28;20059;-78
2023/01/09 17:16:00;;;;;;;12.20;7.47;;;;;;;5.42;82.26;99076.53;10463552;28;20596;-78
2023/01/09 17:21:03;;;;;;;13.15;6.50;;;;;;;5.46;82.21;99083.34;10460342;28;20049;-78
2023/01/09 17:31:38;;;;;;;7.40;5.13;;;;;;;5.02;82.37;99106.34;10457470;28;20080;-78
2023/01/09 17:36:41;;;;;;;10.27;5.68;;;;;;;5.47;81.38;99123.16;10466710;28;20050;-78
2023/01/09 17:41:45;;;;;;;4.65;3.30;;;;;;;5.41;80.71;99130.78;10451713;28;20051;-78
2023/01/09 17:46:48;;;;;;;12.32;3.47;;;;;;;5.31;80.11;99140.47;10467738;28;20061;-78
2023/01/09 17:51:51;;;;;;;3.30;3.00;;;;;;;5.55;79.30;99151.84;10464557;28;20044;-79
2023/01/09 17:56:55;;;;;;;4.10;3.70;;;;;;;5.54;78.63;99157.28;10466469;28;20059;-79
2023/01/09 18:01:58;;;;;;;8.40;2.90;;;;;;;5.58;78.13;99167.56;10464645;28;20044;-78
2023/01/09 18:07:00;;;;;;;6.10;2.95;;;;;;;5.48;78.41;99177.25;10466359;28;20060;-77
2023/01/09 18:12:05;;;;;;;4.93;2.75;;;;;;;5.31;78.46;99186.56;10449554;28;20758;-77
2023/01/09 18:17:11;;;;;;;4.43;2.63;;;;;;;5.41;78.43;99202.69;10447217;28;20080;-78
2023/01/09 18:22:14;;;;;;;4.70;3.38;;;;;;;5.18;79.64;99217.78;10459481;28;20049;-78
2023/01/09 18:27:18;;;;;;;4.03;2.80;;;;;;;5.01;80.75;99245.69;10462657;28;20289;-79
2023/01/09 18:32:21;;;;;;;7.78;3.40;;;;;;;4.91;81.93;99242.00;10458516;28;20060;-77
2023/01/09 18:37:24;;;;;;;6.38;4.40;;;;;;;5.17;82.15;99258.69;10458906;28;20395;-78
2023/01/09 18:42:28;;;;;;;10.50;4.82;;;;;;;4.78;83.31;99255.38;10460195;28;20074;-79
2023/01/09 18:47:31;;;;;;;9.13;4.72;;;;;;;4.95;83.10;99268.25;10457405;28;20063;-79
2023/01/09 18:52:34;;;;;;;10.73;4.90;;;;;;;5.02;82.90;99277.53;10453031;28;20122;-77
2023/01/09 18:57:38;;;;;;;8.20;4.60;;;;;;;4.95;83.25;99286.06;10459030;28;20090;-79
2023/01/09 19:02:41;;;;;;;10.90;6.60;;;;;;;5.02;83.43;99292.66;10469414;28;20125;-78
2023/01/09 19:07:43;;;;;;;10.82;6.22;;;;;;;5.26;81.74;99290.75;10456405;28;20202;-78
2023/01/09 19:12:48;;;;;;;12.43;6.68;;;;;;;4.98;82.59;99299.13;10458067;28;20045;-78
2023/01/09 19:17:50;;;;;;;9.07;5.25;;;;;;;4.78;82.56;99308.59;10455735;28;20116;-79
2023/01/09 19:22:55;;;;;;;10.05;5.15;;;;;;;4.84;82.96;99308.13;10459409;28;20098;-79
2023/01/09 19:28:00;;;;;;;18.30;7.82;;;;;;;5.17;82.50;99315.44;10457668;28;20051;-79
2023/01/09 19:33:02;;;;;;;14.73;8.75;;;;;;;5.20;81.51;99333.84;10461931;28;20099;-78
2023/01/09 19:38:05;;;;;;;20.30;10.23;;;;;;;5.07;82.40;99341.03;10462753;28;20052;-78
2023/01/09 19:43:09;;;;;;;18.08;9.50;;;;;;;5.09;82.02;99354.25;10463496;28;20052;-77
2023/01/09 19:48:15;;;;;;;16.60;10.10;;;;;;;5.13;81.94;99364.56;10462532;28;20059;-78
2023/01/09 19:53:18;;;;;;;22.98;11.70;;;;;;;5.22;81.98;99368.34;10461128;28;20149;-77
2023/01/09 19:58:22;;;;;;;19.52;9.27;;;;;;;5.32;81.21;99385.34;10462997;28;20052;-79
2023/01/09 20:03:25;;;;;;;17.70;8.57;;;;;;;5.23;81.35;99391.34;10459075;28;20044;-78
2023/01/09 20:08:28;;;;;;;21.92;11.57;;;;;;;5.25;81.22;99402.72;10458877;28;20048;-78
2023/01/09 20:13:32;;;;;;;15.18;8.13;;;;;;;4.83;82.12;99421.72;10456909;28;20048;-77
2023/01/09 20:18:35;;;;;;;17.75;8.27;;;;;;;4.86;82.55;99423.31;10461168;28;20058;-79
2023/01/09 20:23:38;;;;;;;16.80;9.10;;;;;;;4.90;82.00;99429.25;10459041;28;20702;-78
2023/01/09 20:28:42;;;;;;;17.50;7.90;;;;;;;4.93;81.75;99445.81;10459512;28;20055;-77
2023/01/09 20:33:46;;;;;;;23.13;12.05;;;;;;;5.08;81.95;99451.06;10458774;28;20582;-78
2023/01/09 20:38:49;;;;;;;22.52;11.05;;;;;;;4.92;82.20;99467.25;10455570;28;20444;-78
2023/01/09 20:43:55;;;;;;;18.15;10.23;;;;;;;5.14;81.13;99470.06;10455608;28;20534;-78
2023/01/09 20:49:01;;;;;;;17.60;7.75;;;;;;;4.89;82.50;99484.28;10457250;28;20063;-78
2023/01/09 20:54:12;;;;;;;16.98;9.05;;;;;;;5.04;81.51;99487.66;10444730;28;20076;-78
2023/01/09 20:59:20;;;;;;;16.30;9.10;;;;;;;5.22;80.87;99496.16;10458316;28;20051;-79
2023/01/09 21:04:23;;;;;;;16.13;8.70;;;;;;;5.23;80.30;99503.16;10457875;28;20044;-78
2023/01/09 21:09:27;;;;;;;12.38;7.18;;;;;;;5.12;80.29;99495.94;10451166;28;20049;-78
2023/01/09 21:14:32;;;;;;;16.98;9.40;;;;;;;5.04;81.01;99503.63;10453456;28;20044;-78
2023/01/09 21:19:37;;;;;;;20.13;9.13;;;;;;;5.05;81.48;99526.66;10459658;28;20661;-77
2023/01/09 21:24:43;;;;;;;19.80;9.23;;;;;;;4.62;82.60;99533.16;10455437;28;20165;-77
2023/01/09 21:29:47;;;;;;;16.42;7.95;;;;;;;4.91;81.75;99530.28;10462537;28;20048;-80
2023/01/09 21:34:50;;;;;;;18.60;11.15;;;;;;;4.75;82.30;99538.47;10483096;28;20112;-79
2023/01/09 21:39:53;;;;;;;15.93;9.10;;;;;;;4.73;81.92;99553.69;10504225;28;20060;-79
2023/01/09 21:50:17;;;;;;;21.30;12.05;;;;;;;4.90;81.09;99565.81;10482568;28;20093;-78
2023/01/09 21:55:20;;;;;;;14.52;8.80;;;;;;;4.73;82.05;99563.50;10506120;28;20066;-78
2023/01/09 22:00:26;;;;;;;26.27;10.70;;;;;;;4.95;80.57;99584.97;10514147;28;20100;-76
2023/01/09 22:05:29;;;;;;;23.13;11.77;;;;;;;5.21;80.33;99592.94;10514833;28;20045;-76
2023/01/09 22:10:32;;;;;;;18.38;7.78;;;;;;;5.14;80.04;99620.97;10512580;28;20041;-78
2023/01/09 22:15:36;;;;;;;18.80;9.13;;;;;;;4.60;81.94;99622.84;10514695;28;20048;-78
2023/01/09 22:20:39;;;;;;;11.77;7.43;;;;;;;4.80;81.55;99636.59;10516452;28;20068;-77
2023/01/09 22:25:42;;;;;;;12.57;8.32;;;;;;;4.77;82.40;99624.38;10510382;28;20045;-77
2023/01/09 22:30:46;;;;;;;14.38;6.43;;;;;;;4.91;81.95;99636.72;10512199;28;20393;-77
2023/01/09 22:35:49;;;;;;;19.77;10.35;;;;;;;4.87;82.51;99664.50;10501852;28;20049;-77
2023/01/09 22:40:52;;;;;;;20.25;9.85;;;;;;;5.15;81.35;99666.13;10500094;28;20458;-77
2023/01/09 22:46:00;;;;;;;19.40;10.38;;;;;;;4.94;82.13;99689.75;10500170;28;20123;-77
2023/01/09 22:51:05;;;;;;;25.98;10.90;;;;;;;5.40;80.54;99689.25;10499383;28;20408;-78
2023/01/09 22:56:11;;;;;;;24.80;10.32;;;;;;;5.08;81.21;99687.97;10501960;28;20083;-76
2023/01/09 23:01:15;;;;;;;23.10;12.60;;;;;;;5.20;81.39;99682.63;10503001;28;20568;-77
2023/01/09 23:06:20;;;;;;;23.25;10.07;;;;;;;5.00;81.05;99693.81;10505263;28;20143;-78
2023/01/09 23:16:47;;;;;;;19.58;10.43;;;;;;;5.08;81.85;99730.56;10504443;28;20580;-78
2023/01/09 23:21:50;;;;;;;21.15;12.15;;;;;;;5.12;81.58;99732.03;10527272;28;20048;-77
2023/01/09 23:26:53;;;;;;;18.00;9.90;;;;;;;4.90;82.18;99745.94;10533460;28;20052;-78
2023/01/09 23:31:57;;;;;;;18.52;10.80;;;;;;;5.17;81.03;99751.22;10501380;28;20091;-79
2023/01/09 23:37:00;;;;;;;16.05;9.98;;;;;;;5.42;80.10;99745.88;10503075;28;20044;-78
2023/01/09 23:47:25;;;;;;;15.27;9.32;;;;;;;4.94;82.39;99758.94;10500288;28;20549;-78
2023/01/09 23:52:28;;;;;;;18.67;7.90;;;;;;;5.14;81.84;99770.06;10502097;28;20044;-78
2023/01/09 23:57:31;;;;;;;14.48;6.05;;;;;;;4.68;83.12;99773.13;10498621;28;20123;-78
